Time;durP1;ratioP1;P1;durP2;ratioP2;P2;SDS_P1;SDS_P2;PMS_P1;PMS_P2;Temp;Humidity;BMP_temperature;BMP_pressure;BME280_temperature;BME280_humidity;BME280_pressure;Samples;Min_cycle;Max_cycle;Signal;HPM_P1;HPM_P2
2023/08/06 00:00:01;;;;;;;9.65;5.20;;;;;;;;;;5150246;27;20022;-71
2023/08/06 00:02:27;;;;;;;12.02;7.60;;;;;;;;;;5150760;27;20490;-71
2023/08/06 00:04:53;;;;;;;9.45;5.18;;;;;;;;;;5149928;27;20026;-71
2023/08/06 00:07:19;;;;;;;9.32;6.13;;;;;;;;;;5151395;27;20051;-71
2023/08/06 00:09:45;;;;;;;11.40;7.50;;;;;;;;;;5154934;27;20151;-71
2023/08/06 00:12:11;;;;;;;9.73;5.35;;;;;;;;;;5154725;27;20032;-71
2023/08/06 00:14:37;;;;;;;9.85;6.68;;;;;;;;;;5153005;27;20025;-71
2023/08/06 00:17:03;;;;;;;12.50;7.93;;;;;;;;;;5154345;27;20550;-71
2023/08/06 00:19:29;;;;;;;8.45;6.32;;;;;;;;;;5154805;27;20071;-71
2023/08/06 00:21:55;;;;;;;10.25;7.50;;;;;;;;;;5154468;27;20203;-71
2023/08/06 00:24:21;;;;;;;11.88;8.40;;;;;;;;;;5154712;27;20023;-71
2023/08/06 00:26:47;;;;;;;9.95;7.03;;;;;;;;;;5154321;27;20051;-71
2023/08/06 00:29:13;;;;;;;10.20;6.88;;;;;;;;;;5153984;27;20023;-71
2023/08/06 00:31:39;;;;;;;8.93;7.32;;;;;;;;;;5154307;27;20023;-71
2023/08/06 00:34:05;;;;;;;10.27;7.68;;;;;;;;;;5154386;27;20113;-71
2023/08/06 00:36:31;;;;;;;9.68;7.18;;;;;;;;;;5153660;27;20051;-71
2023/08/06 00:38:57;;;;;;;11.32;7.00;;;;;;;;;;5154116;27;20026;-71
2023/08/06 00:41:23;;;;;;;8.10;6.15;;;;;;;;;;5153974;27;20031;-72
2023/08/06 00:43:49;;;;;;;12.35;7.57;;;;;;;;;;5154461;27;20029;-72
2023/08/06 00:46:15;;;;;;;10.50;7.20;;;;;;;;;;5154112;27;20026;-71
2023/08/06 00:48:41;;;;;;;9.57;6.50;;;;;;;;;;5153932;27;20544;-71
2023/08/06 00:51:09;;;;;;;10.57;6.57;;;;;;;;;;5153738;27;20029;-71
2023/08/06 00:53:35;;;;;;;8.65;6.28;;;;;;;;;;5154033;27;20432;-71
2023/08/06 00:56:01;;;;;;;13.20;9.70;;;;;;;;;;5153792;27;20066;-71
2023/08/06 00:58:27;;;;;;;11.32;7.47;;;;;;;;;;5153766;27;20041;-72
2023/08/06 01:00:53;;;;;;;8.65;5.85;;;;;;;;;;5153647;27;20023;-71
2023/08/06 01:03:19;;;;;;;8.88;6.55;;;;;;;;;;5153638;27;20460;-71
2023/08/06 01:05:45;;;;;;;12.40;7.22;;;;;;;;;;5153994;27;20051;-72
2023/08/06 01:08:11;;;;;;;8.30;5.15;;;;;;;;;;5153980;27;20026;-71
2023/08/06 01:10:57;;;;;;;9.10;4.93;;;;;;;;;;5152439;27;20019;-72
2023/08/06 01:13:43;;;;;;;11.27;7.85;;;;;;;;;;5153437;27;20050;-72
2023/08/06 01:16:10;;;;;;;7.97;5.88;;;;;;;;;;5146442;27;20042;-71
2023/08/06 01:18:38;;;;;;;7.53;4.68;;;;;;;;;;5151383;27;20023;-72
2023/08/06 01:21:05;;;;;;;7.53;4.82;;;;;;;;;;5153661;27;20075;-74
2023/08/06 01:23:31;;;;;;;9.30;5.78;;;;;;;;;;5154231;27;20015;-74
2023/08/06 01:26:06;;;;;;;8.25;5.70;;;;;;;;;;5153226;27;20631;-74
2023/08/06 01:28:32;;;;;;;9.50;6.40;;;;;;;;;;5153292;27;20395;-76
2023/08/06 01:31:00;;;;;;;8.48;5.65;;;;;;;;;;5154016;27;20027;-74
2023/08/06 01:33:28;;;;;;;9.43;6.72;;;;;;;;;;5152150;27;20049;-73
2023/08/06 01:35:55;;;;;;;7.32;5.43;;;;;;;;;;5152462;27;20051;-74
2023/08/06 01:38:21;;;;;;;7.45;4.93;;;;;;;;;;5153273;27;20027;-73
2023/08/06 01:40:47;;;;;;;8.07;5.20;;;;;;;;;;5152624;27;20096;-73
2023/08/06 01:43:13;;;;;;;8.05;6.07;;;;;;;;;;5152930;27;20337;-72
2023/08/06 01:45:39;;;;;;;7.32;4.88;;;;;;;;;;5153040;27;20022;-73
2023/08/06 01:48:05;;;;;;;8.88;5.90;;;;;;;;;;5151667;27;20073;-73
2023/08/06 01:50:31;;;;;;;8.40;5.88;;;;;;;;;;5152671;27;20027;-73
2023/08/06 01:52:57;;;;;;;7.68;5.53;;;;;;;;;;5152441;27;20033;-73
2023/08/06 01:55:23;;;;;;;7.72;5.18;;;;;;;;;;5152713;27;20055;-73
2023/08/06 01:57:49;;;;;;;12.15;8.15;;;;;;;;;;5152411;27;20040;-73
2023/08/06 02:00:15;;;;;;;9.80;6.88;;;;;;;;;;5150765;27;20049;-74
2023/08/06 02:02:41;;;;;;;10.05;7.82;;;;;;;;;;5152588;27;20110;-73
2023/08/06 02:05:07;;;;;;;11.68;8.63;;;;;;;;;;5152484;27;20023;-72
2023/08/06 02:07:33;;;;;;;13.45;11.02;;;;;;;;;;5152634;27;20027;-73
2023/08/06 02:09:59;;;;;;;13.43;9.07;;;;;;;;;;5152630;27;20329;-72
2023/08/06 02:12:25;;;;;;;10.18;7.88;;;;;;;;;;5152264;27;20439;-73
2023/08/06 02:14:51;;;;;;;10.70;8.50;;;;;;;;;;5152769;27;20208;-74
2023/08/06 02:17:17;;;;;;;14.63;10.15;;;;;;;;;;5151850;27;20046;-73
2023/08/06 02:19:43;;;;;;;10.45;8.43;;;;;;;;;;5152152;27;20469;-73
2023/08/06 02:22:09;;;;;;;10.05;8.02;;;;;;;;;;5151990;27;20026;-73
2023/08/06 02:24:35;;;;;;;10.30;8.43;;;;;;;;;;5151636;27;20109;-73
2023/08/06 02:27:01;;;;;;;12.18;8.80;;;;;;;;;;5150725;27;20384;-72
2023/08/06 02:29:27;;;;;;;12.68;9.63;;;;;;;;;;5151989;27;20476;-73
2023/08/06 02:31:53;;;;;;;13.52;10.23;;;;;;;;;;5151996;27;20033;-73
2023/08/06 02:34:19;;;;;;;11.77;9.00;;;;;;;;;;5150230;27;20022;-73
2023/08/06 02:36:44;;;;;;;10.10;7.80;;;;;;;;;;5151308;27;20046;-73
2023/08/06 02:39:10;;;;;;;12.32;9.85;;;;;;;;;;5151963;27;20051;-73
2023/08/06 02:41:36;;;;;;;15.10;11.60;;;;;;;;;;5151529;27;20021;-72
2023/08/06 02:44:03;;;;;;;14.48;11.88;;;;;;;;;;5151360;27;20892;-73
2023/08/06 02:46:29;;;;;;;10.18;7.93;;;;;;;;;;5151966;27;20025;-72
2023/08/06 02:48:54;;;;;;;13.00;9.68;;;;;;;;;;5151230;27;20015;-73
2023/08/06 02:51:20;;;;;;;12.98;9.18;;;;;;;;;;5152090;27;20064;-73
2023/08/06 02:53:48;;;;;;;10.85;7.72;;;;;;;;;;5150320;27;20023;-73
2023/08/06 02:56:14;;;;;;;9.85;6.63;;;;;;;;;;5151798;27;20031;-73
2023/08/06 02:58:40;;;;;;;11.60;8.13;;;;;;;;;;5151652;27;20147;-73
2023/08/06 03:01:07;;;;;;;11.60;9.40;;;;;;;;;;5150782;27;20105;-72
2023/08/06 03:03:33;;;;;;;9.30;7.50;;;;;;;;;;5151697;27;20063;-73
2023/08/06 03:06:00;;;;;;;9.75;7.47;;;;;;;;;;5151491;27;20054;-72
2023/08/06 03:08:26;;;;;;;8.18;6.20;;;;;;;;;;5151853;27;20027;-73
2023/08/06 03:10:52;;;;;;;11.30;8.00;;;;;;;;;;5151483;27;20160;-72
2023/08/06 03:13:18;;;;;;;8.82;6.45;;;;;;;;;;5151217;27;20018;-72
2023/08/06 03:15:52;;;;;;;8.45;7.00;;;;;;;;;;5150964;27;21074;-73
2023/08/06 03:18:18;;;;;;;9.70;7.25;;;;;;;;;;5151171;27;20027;-73
2023/08/06 03:20:45;;;;;;;7.07;5.25;;;;;;;;;;5151065;27;20030;-72
2023/08/06 03:23:11;;;;;;;7.05;5.03;;;;;;;;;;5150016;27;20045;-72
2023/08/06 03:25:37;;;;;;;8.18;5.65;;;;;;;;;;5150737;27;20080;-72
2023/08/06 03:28:03;;;;;;;10.43;7.20;;;;;;;;;;5151289;27;20080;-73
2023/08/06 03:30:29;;;;;;;11.65;7.00;;;;;;;;;;5150856;27;20421;-72
2023/08/06 03:32:55;;;;;;;9.48;6.55;;;;;;;;;;5150771;27;20103;-73
2023/08/06 03:35:21;;;;;;;9.65;6.05;;;;;;;;;;5150641;27;20114;-72
2023/08/06 03:37:48;;;;;;;10.55;7.07;;;;;;;;;;5150701;27;20054;-72
2023/08/06 03:40:14;;;;;;;8.55;6.25;;;;;;;;;;5149506;27;20498;-73
2023/08/06 03:42:40;;;;;;;10.77;7.95;;;;;;;;;;5150205;27;20160;-73
2023/08/06 03:45:06;;;;;;;9.07;6.05;;;;;;;;;;5150514;27;20058;-73
2023/08/06 03:47:32;;;;;;;11.52;7.93;;;;;;;;;;5150546;27;20026;-73
2023/08/06 03:49:58;;;;;;;9.27;6.70;;;;;;;;;;5150771;27;20176;-73
2023/08/06 03:52:24;;;;;;;11.48;7.82;;;;;;;;;;5150601;27;20018;-73
2023/08/06 03:54:51;;;;;;;9.18;6.68;;;;;;;;;;5150549;27;20034;-72
2023/08/06 03:57:17;;;;;;;10.63;7.28;;;;;;;;;;5149195;27;20468;-72
2023/08/06 03:59:43;;;;;;;9.13;6.40;;;;;;;;;;5150416;27;20060;-72
2023/08/06 04:02:09;;;;;;;9.98;6.57;;;;;;;;;;5150291;27;20027;-72
2023/08/06 04:04:35;;;;;;;10.65;7.07;;;;;;;;;;5150408;27;20034;-72
2023/08/06 04:07:01;;;;;;;10.98;7.68;;;;;;;;;;5150414;27;20088;-72
2023/08/06 04:09:29;;;;;;;9.38;7.18;;;;;;;;;;5151462;27;20019;-72
2023/08/06 04:11:58;;;;;;;10.93;7.28;;;;;;;;;;5149484;27;20023;-72
2023/08/06 04:14:24;;;;;;;12.05;8.80;;;;;;;;;;5150556;27;20109;-72
2023/08/06 04:16:50;;;;;;;11.05;7.95;;;;;;;;;;5149532;27;20456;-73
2023/08/06 04:19:16;;;;;;;9.55;7.40;;;;;;;;;;5149057;27;20114;-72
2023/08/06 04:21:42;;;;;;;12.50;8.23;;;;;;;;;;5150149;27;20083;-73
2023/08/06 04:24:08;;;;;;;9.13;6.53;;;;;;;;;;5150497;27;20113;-73
2023/08/06 04:26:34;;;;;;;13.52;8.30;;;;;;;;;;5150530;27;20026;-73
2023/08/06 04:29:00;;;;;;;10.23;8.27;;;;;;;;;;5149768;27;20077;-72
2023/08/06 04:31:26;;;;;;;11.73;8.77;;;;;;;;;;5150789;27;20019;-73
2023/08/06 04:33:52;;;;;;;12.45;9.55;;;;;;;;;;5150144;27;20075;-73
2023/08/06 04:36:18;;;;;;;12.02;8.45;;;;;;;;;;5149912;27;20090;-73
2023/08/06 04:38:47;;;;;;;12.93;10.25;;;;;;;;;;5149810;27;20027;-74
2023/08/06 04:41:13;;;;;;;16.10;11.15;;;;;;;;;;5150248;27;20034;-72
2023/08/06 04:43:39;;;;;;;12.18;9.70;;;;;;;;;;5150341;27;20033;-74
2023/08/06 04:46:06;;;;;;;9.55;7.50;;;;;;;;;;5150747;27;20019;-73
2023/08/06 04:48:32;;;;;;;14.98;10.95;;;;;;;;;;5150301;27;20071;-72
2023/08/06 04:50:58;;;;;;;15.55;10.13;;;;;;;;;;5149690;27;20031;-73
2023/08/06 04:53:24;;;;;;;12.13;9.32;;;;;;;;;;5149933;27;20023;-74
2023/08/06 04:55:50;;;;;;;15.13;11.13;;;;;;;;;;5153207;27;20091;-74
2023/08/06 04:58:16;;;;;;;13.98;10.77;;;;;;;;;;5154044;27;20045;-73
2023/08/06 05:00:42;;;;;;;12.20;9.30;;;;;;;;;;5153448;27;20468;-72
2023/08/06 05:03:08;;;;;;;12.05;8.52;;;;;;;;;;5153798;27;20027;-73
2023/08/06 05:05:34;;;;;;;11.40;8.40;;;;;;;;;;5153800;27;20071;-72
2023/08/06 05:08:00;;;;;;;11.30;7.50;;;;;;;;;;5152713;27;20435;-73
2023/08/06 05:10:26;;;;;;;11.02;8.07;;;;;;;;;;5152572;27;20406;-72
2023/08/06 05:12:52;;;;;;;16.52;9.10;;;;;;;;;;5153010;27;20026;-73
2023/08/06 05:15:18;;;;;;;11.63;7.28;;;;;;;;;;5153666;27;20083;-73
2023/08/06 05:17:45;;;;;;;12.07;9.23;;;;;;;;;;5153707;27;20072;-73
2023/08/06 05:20:11;;;;;;;14.40;10.10;;;;;;;;;;5153349;27;20563;-73
2023/08/06 05:22:37;;;;;;;12.02;9.48;;;;;;;;;;5153254;27;20409;-72
2023/08/06 05:25:06;;;;;;;13.60;10.13;;;;;;;;;;5153772;27;20468;-72
2023/08/06 05:27:32;;;;;;;11.00;8.35;;;;;;;;;;5153641;27;20060;-72
2023/08/06 05:29:58;;;;;;;9.35;7.30;;;;;;;;;;5153663;27;20035;-72
2023/08/06 05:32:24;;;;;;;10.82;6.22;;;;;;;;;;5153885;27;20102;-72
2023/08/06 05:34:50;;;;;;;8.38;6.00;;;;;;;;;;5153545;27;20053;-72
2023/08/06 05:37:16;;;;;;;9.85;7.82;;;;;;;;;;5153841;27;20171;-72
2023/08/06 05:39:42;;;;;;;11.85;8.55;;;;;;;;;;5153885;27;20105;-73
2023/08/06 05:42:08;;;;;;;11.98;9.52;;;;;;;;;;5151941;27;20076;-72
2023/08/06 05:44:34;;;;;;;10.50;8.23;;;;;;;;;;5152948;27;20029;-72
2023/08/06 05:47:00;;;;;;;11.25;9.30;;;;;;;;;;5153575;27;20030;-73
2023/08/06 05:49:26;;;;;;;11.52;8.10;;;;;;;;;;5151662;27;20724;-72
2023/08/06 05:51:55;;;;;;;10.73;8.40;;;;;;;;;;5152988;27;20079;-71
2023/08/06 05:54:21;;;;;;;13.57;9.38;;;;;;;;;;5151358;27;20023;-72
2023/08/06 05:56:47;;;;;;;18.92;14.07;;;;;;;;;;5153162;27;20476;-72
2023/08/06 05:59:13;;;;;;;17.27;12.75;;;;;;;;;;5152390;27;20023;-72
2023/08/06 06:01:39;;;;;;;14.75;12.23;;;;;;;;;;5152487;27;20343;-72
2023/08/06 06:04:05;;;;;;;17.38;13.88;;;;;;;;;;5151452;27;20018;-72
2023/08/06 06:06:31;;;;;;;17.67;15.60;;;;;;;;;;5151064;27;20026;-73
2023/08/06 06:08:57;;;;;;;20.80;17.95;;;;;;;;;;5152485;27;20022;-72
2023/08/06 06:11:23;;;;;;;18.08;13.38;;;;;;;;;;5151479;27;20106;-73
2023/08/06 06:13:52;;;;;;;15.23;12.88;;;;;;;;;;5152203;27;20027;-73
2023/08/06 06:16:18;;;;;;;17.33;14.20;;;;;;;;;;5152303;27;20396;-73
2023/08/06 06:18:44;;;;;;;17.55;13.57;;;;;;;;;;5152362;27;20023;-71
2023/08/06 06:21:11;;;;;;;16.60;14.10;;;;;;;;;;5152491;27;20025;-72
2023/08/06 06:23:37;;;;;;;19.88;14.90;;;;;;;;;;5152421;27;20015;-73
2023/08/06 06:26:03;;;;;;;20.63;17.42;;;;;;;;;;5152058;27;20045;-72
2023/08/06 06:28:29;;;;;;;21.92;17.02;;;;;;;;;;5152045;27;20086;-71
2023/08/06 06:31:00;;;;;;;22.83;15.50;;;;;;;;;;5151894;27;20034;-72
2023/08/06 06:33:26;;;;;;;19.00;14.93;;;;;;;;;;5153014;27;20035;-73
2023/08/06 06:35:52;;;;;;;17.10;13.57;;;;;;;;;;5151558;27;20050;-73
2023/08/06 06:38:18;;;;;;;18.27;13.50;;;;;;;;;;5152046;27;20472;-72
2023/08/06 06:40:44;;;;;;;23.98;16.00;;;;;;;;;;5152180;27;20069;-73
2023/08/06 06:43:10;;;;;;;17.45;13.75;;;;;;;;;;5150342;27;20027;-73
2023/08/06 06:45:36;;;;;;;14.85;12.48;;;;;;;;;;5149830;27;20034;-73
2023/08/06 06:48:02;;;;;;;19.40;15.52;;;;;;;;;;5150050;27;20018;-73
2023/08/06 06:50:28;;;;;;;19.92;14.88;;;;;;;;;;5149930;27;20027;-73
2023/08/06 06:52:54;;;;;;;18.50;15.45;;;;;;;;;;5149039;27;20029;-71
2023/08/06 06:55:20;;;;;;;16.55;12.55;;;;;;;;;;5151081;27;20023;-72
2023/08/06 06:57:47;;;;;;;18.48;13.70;;;;;;;;;;5151624;27;20023;-73
2023/08/06 07:00:13;;;;;;;21.48;16.75;;;;;;;;;;5149904;27;20050;-72
2023/08/06 07:02:39;;;;;;;16.42;13.05;;;;;;;;;;5151514;27;20426;-72
2023/08/06 07:05:07;;;;;;;21.17;16.45;;;;;;;;;;5150866;27;20026;-73
2023/08/06 07:07:33;;;;;;;21.38;17.02;;;;;;;;;;5152193;27;20413;-72
2023/08/06 07:09:59;;;;;;;21.73;16.00;;;;;;;;;;5151383;27;20109;-73
2023/08/06 07:12:25;;;;;;;19.27;14.15;;;;;;;;;;5152001;27;20661;-72
2023/08/06 07:14:51;;;;;;;17.60;13.98;;;;;;;;;;5149727;27;20030;-73
2023/08/06 07:17:17;;;;;;;15.20;12.48;;;;;;;;;;5150810;27;20030;-71
2023/08/06 07:19:43;;;;;;;20.95;16.92;;;;;;;;;;5150941;27;20027;-72
2023/08/06 07:22:09;;;;;;;20.60;17.35;;;;;;;;;;5151317;27;20196;-72
2023/08/06 07:24:36;;;;;;;21.33;16.45;;;;;;;;;;5151359;27;20033;-72
2023/08/06 07:27:02;;;;;;;20.52;17.63;;;;;;;;;;5150774;27;20023;-71
2023/08/06 07:29:28;;;;;;;16.55;13.65;;;;;;;;;;5151043;27;20030;-71
2023/08/06 07:31:55;;;;;;;17.83;13.75;;;;;;;;;;5150712;27;20018;-71
2023/08/06 07:34:21;;;;;;;17.40;14.75;;;;;;;;;;5151344;27;20280;-71
2023/08/06 07:36:48;;;;;;;20.38;15.70;;;;;;;;;;5150720;27;20054;-71
2023/08/06 07:39:16;;;;;;;20.95;17.20;;;;;;;;;;5150629;27;20501;-71
2023/08/06 07:41:42;;;;;;;19.60;16.00;;;;;;;;;;5150493;27;20022;-71
2023/08/06 07:44:08;;;;;;;18.83;16.23;;;;;;;;;;5150933;27;20452;-72
2023/08/06 07:46:34;;;;;;;15.60;13.52;;;;;;;;;;5151482;27;20125;-72
2023/08/06 07:49:02;;;;;;;14.02;12.00;;;;;;;;;;5150673;27;20029;-72
2023/08/06 07:51:28;;;;;;;14.55;11.80;;;;;;;;;;5151133;27;20022;-72
2023/08/06 07:53:54;;;;;;;15.05;12.70;;;;;;;;;;5150874;27;20023;-71
2023/08/06 07:56:21;;;;;;;16.08;14.27;;;;;;;;;;5150819;27;20066;-71
2023/08/06 07:58:47;;;;;;;18.42;14.73;;;;;;;;;;5151226;27;20023;-71
2023/08/06 08:01:13;;;;;;;17.45;12.60;;;;;;;;;;5150431;27;20059;-71
2023/08/06 08:03:39;;;;;;;16.70;13.00;;;;;;;;;;5150935;27;20044;-71
2023/08/06 08:06:05;;;;;;;16.13;14.30;;;;;;;;;;5149769;27;20056;-71
2023/08/06 08:08:31;;;;;;;14.75;12.80;;;;;;;;;;5150564;27;20102;-71
2023/08/06 08:10:58;;;;;;;14.43;12.38;;;;;;;;;;5150586;27;20413;-71
2023/08/06 08:13:24;;;;;;;17.15;15.35;;;;;;;;;;5150357;27;20064;-72
2023/08/06 08:15:50;;;;;;;14.88;11.23;;;;;;;;;;5150433;27;20026;-72
2023/08/06 08:18:16;;;;;;;16.05;12.02;;;;;;;;;;5150601;27;20118;-72
2023/08/06 08:20:43;;;;;;;16.35;13.40;;;;;;;;;;5150152;27;20106;-72
2023/08/06 08:23:09;;;;;;;15.73;10.88;;;;;;;;;;5149990;27;20064;-71
2023/08/06 08:25:35;;;;;;;15.82;12.88;;;;;;;;;;5150846;27;20027;-72
2023/08/06 08:28:01;;;;;;;15.40;13.80;;;;;;;;;;5148900;27;20823;-73
2023/08/06 08:30:27;;;;;;;7.55;4.95;;;;;;;;;;5154513;27;20524;-73
2023/08/06 08:32:53;;;;;;;9.98;4.68;;;;;;;;;;5155521;27;20464;-73
2023/08/06 08:35:19;;;;;;;7.85;3.85;;;;;;;;;;5153798;27;20083;-73
2023/08/06 08:37:45;;;;;;;8.27;3.97;;;;;;;;;;5154442;27;20026;-72
2023/08/06 08:40:11;;;;;;;8.10;3.70;;;;;;;;;;5154667;27;20031;-72
2023/08/06 08:42:37;;;;;;;9.95;7.32;;;;;;;;;;5152581;27;20064;-73
2023/08/06 08:45:11;;;;;;;13.10;9.75;;;;;;;;;;5151591;27;20071;-73
2023/08/06 08:47:41;;;;;;;9.40;5.85;;;;;;;;;;5153562;27;20023;-73
2023/08/06 08:50:09;;;;;;;8.77;6.00;;;;;;;;;;5152645;27;20074;-74
2023/08/06 08:52:36;;;;;;;13.65;11.20;;;;;;;;;;5152665;27;20102;-73
2023/08/06 08:55:02;;;;;;;11.55;8.63;;;;;;;;;;5152186;27;20369;-74
2023/08/06 08:57:28;;;;;;;12.02;8.57;;;;;;;;;;5152361;27;20031;-75
2023/08/06 08:59:54;;;;;;;11.32;8.02;;;;;;;;;;5150962;27;20045;-74
2023/08/06 09:02:21;;;;;;;14.05;9.65;;;;;;;;;;5152239;27;20034;-75
2023/08/06 09:04:49;;;;;;;12.38;10.10;;;;;;;;;;5152504;27;20051;-76
2023/08/06 09:07:18;;;;;;;11.02;8.27;;;;;;;;;;5153184;27;20072;-75
2023/08/06 09:09:46;;;;;;;7.47;5.67;;;;;;;;;;5152530;27;20396;-75
2023/08/06 09:12:14;;;;;;;11.73;8.25;;;;;;;;;;5152038;27;20110;-74
2023/08/06 09:14:40;;;;;;;8.90;6.95;;;;;;;;;;5150909;27;20072;-73
2023/08/06 09:17:07;;;;;;;12.68;8.45;;;;;;;;;;5151333;27;20408;-73
2023/08/06 09:19:33;;;;;;;10.05;6.50;;;;;;;;;;5153439;27;20026;-75
2023/08/06 09:21:59;;;;;;;9.77;6.03;;;;;;;;;;5153577;27;20031;-73
2023/08/06 09:24:27;;;;;;;9.30;5.80;;;;;;;;;;5153468;27;20032;-75
2023/08/06 09:26:54;;;;;;;8.68;5.93;;;;;;;;;;5153110;27;20473;-73
2023/08/06 09:29:20;;;;;;;7.47;4.57;;;;;;;;;;5153612;27;20063;-73
2023/08/06 09:31:47;;;;;;;8.15;4.50;;;;;;;;;;5152219;27;20027;-74
2023/08/06 09:34:13;;;;;;;7.80;5.72;;;;;;;;;;5153023;27;20559;-76
2023/08/06 09:37:08;;;;;;;8.98;7.70;;;;;;;;;;5152941;27;20050;-74
2023/08/06 09:39:34;;;;;;;8.63;6.45;;;;;;;;;;5143040;27;20397;-74
2023/08/06 09:42:01;;;;;;;8.38;6.50;;;;;;;;;;5152857;27;20031;-74
2023/08/06 09:44:28;;;;;;;11.07;8.32;;;;;;;;;;5153051;27;20443;-75
2023/08/06 09:46:54;;;;;;;10.75;7.65;;;;;;;;;;5153774;27;20499;-74
2023/08/06 09:49:21;;;;;;;9.30;6.45;;;;;;;;;;5152938;27;20072;-74
2023/08/06 09:51:50;;;;;;;7.30;5.20;;;;;;;;;;5152846;27;20027;-74
2023/08/06 09:54:16;;;;;;;6.78;5.28;;;;;;;;;;5151878;27;20471;-74
2023/08/06 09:56:43;;;;;;;11.00;8.52;;;;;;;;;;5151936;27;20073;-74
2023/08/06 09:59:11;;;;;;;13.98;10.27;;;;;;;;;;5152796;27;20033;-75
2023/08/06 10:01:37;;;;;;;11.13;9.23;;;;;;;;;;5153146;27;20018;-75
2023/08/06 10:04:04;;;;;;;11.35;9.82;;;;;;;;;;5153224;27;20076;-75
2023/08/06 10:06:30;;;;;;;14.75;13.25;;;;;;;;;;5152798;27;20023;-74
2023/08/06 10:08:56;;;;;;;12.38;11.00;;;;;;;;;;5152737;27;20031;-74
2023/08/06 10:11:25;;;;;;;13.98;12.05;;;;;;;;;;5152258;27;20473;-75
2023/08/06 10:13:54;;;;;;;13.95;12.48;;;;;;;;;;5153036;27;20015;-75
2023/08/06 10:16:20;;;;;;;19.70;15.93;;;;;;;;;;5152758;27;20034;-75
2023/08/06 10:18:47;;;;;;;17.85;15.95;;;;;;;;;;5152549;27;20061;-74
2023/08/06 10:21:13;;;;;;;19.88;17.70;;;;;;;;;;5152701;27;20103;-75
2023/08/06 10:23:40;;;;;;;17.10;14.93;;;;;;;;;;5150995;27;20022;-75
2023/08/06 10:26:06;;;;;;;10.07;7.30;;;;;;;;;;5152871;27;20110;-74
2023/08/06 10:28:41;;;;;;;8.52;5.00;;;;;;;;;;5152643;27;20101;-76
2023/08/06 10:31:07;;;;;;;5.75;3.80;;;;;;;;;;5152190;27;20026;-75
2023/08/06 10:33:44;;;;;;;5.43;3.42;;;;;;;;;;5152672;27;20031;-77
2023/08/06 10:36:10;;;;;;;4.10;2.53;;;;;;;;;;5151549;27;20058;-76
2023/08/06 10:38:44;;;;;;;4.18;2.05;;;;;;;;;;5150256;27;20448;-73
2023/08/06 10:41:15;;;;;;;2.63;1.20;;;;;;;;;;5150650;27;20094;-74
2023/08/06 10:43:43;;;;;;;1.90;1.05;;;;;;;;;;5151823;27;20030;-74
2023/08/06 10:46:21;;;;;;;2.35;0.95;;;;;;;;;;5149916;27;20039;-73
2023/08/06 10:48:47;;;;;;;3.22;1.33;;;;;;;;;;5151720;27;20023;-73
2023/08/06 10:51:14;;;;;;;3.47;1.35;;;;;;;;;;5150698;27;20107;-73
2023/08/06 10:53:44;;;;;;;2.42;1.40;;;;;;;;;;5148980;27;20048;-73
2023/08/06 10:56:17;;;;;;;4.65;1.90;;;;;;;;;;5150112;27;20034;-72
2023/08/06 10:58:44;;;;;;;3.83;1.70;;;;;;;;;;5150404;27;20027;-75
2023/08/06 11:01:11;;;;;;;3.17;1.70;;;;;;;;;;5148518;27;20488;-75
2023/08/06 11:03:37;;;;;;;5.80;1.88;;;;;;;;;;5150045;27;20023;-75
2023/08/06 11:06:04;;;;;;;2.55;1.63;;;;;;;;;;5150060;27;20038;-76
2023/08/06 11:08:34;;;;;;;3.75;1.85;;;;;;;;;;5150449;27;20019;-75
2023/08/06 11:11:13;;;;;;;2.85;1.55;;;;;;;;;;5150655;27;20030;-74
2023/08/06 11:13:42;;;;;;;5.30;2.70;;;;;;;;;;5151180;27;20789;-74
2023/08/06 11:16:08;;;;;;;4.80;2.50;;;;;;;;;;5151132;27;20062;-74
2023/08/06 11:18:34;;;;;;;3.55;2.00;;;;;;;;;;5151078;27;20032;-74
2023/08/06 11:21:01;;;;;;;5.07;2.40;;;;;;;;;;5150877;27;20103;-74
2023/08/06 11:23:30;;;;;;;3.30;1.67;;;;;;;;;;5151204;27;20105;-72
2023/08/06 11:25:57;;;;;;;3.30;1.80;;;;;;;;;;5151054;27;20019;-73
2023/08/06 11:28:23;;;;;;;4.38;2.00;;;;;;;;;;5150965;27;20072;-74
2023/08/06 11:30:50;;;;;;;3.15;1.77;;;;;;;;;;5150866;27;20540;-75
2023/08/06 11:33:21;;;;;;;6.47;3.05;;;;;;;;;;5151042;27;20546;-73
2023/08/06 11:35:48;;;;;;;3.88;2.42;;;;;;;;;;5151123;27;20357;-74
2023/08/06 11:38:14;;;;;;;6.93;3.40;;;;;;;;;;5149414;27;20487;-75
2023/08/06 11:40:40;;;;;;;6.32;3.63;;;;;;;;;;5150816;27;20546;-75
2023/08/06 11:43:06;;;;;;;6.88;4.18;;;;;;;;;;5150181;27;20038;-75
2023/08/06 11:45:35;;;;;;;7.72;4.85;;;;;;;;;;5151027;27;20023;-73
2023/08/06 11:48:02;;;;;;;8.00;4.93;;;;;;;;;;5150411;27;20432;-73
2023/08/06 11:50:30;;;;;;;7.03;4.32;;;;;;;;;;5150580;27;20019;-74
2023/08/06 11:53:00;;;;;;;6.30;4.25;;;;;;;;;;5149300;27;20022;-75
2023/08/06 11:55:26;;;;;;;;;;;;;;;;;;5149326;27;20136;-74
2023/08/06 11:57:52;;;;;;;5.40;3.42;;;;;;;;;;5150825;27;19993;-74
2023/08/06 12:00:19;;;;;;;7.78;3.67;;;;;;;;;;5150581;27;20030;-74
2023/08/06 12:02:46;;;;;;;6.13;3.50;;;;;;;;;;5150396;27;20023;-74
2023/08/06 12:05:13;;;;;;;5.50;3.60;;;;;;;;;;5154882;27;20019;-73
2023/08/06 12:07:44;;;;;;;7.60;3.88;;;;;;;;;;5155228;27;20094;-74
2023/08/06 12:10:10;;;;;;;6.25;3.30;;;;;;;;;;5154982;27;20147;-73
2023/08/06 12:12:37;;;;;;;5.40;2.83;;;;;;;;;;5154558;27;20135;-73
2023/08/06 12:15:04;;;;;;;6.78;4.18;;;;;;;;;;5154881;27;20476;-72
2023/08/06 12:17:30;;;;;;;8.02;4.40;;;;;;;;;;5154933;27;20403;-73
2023/08/06 12:19:56;;;;;;;7.80;4.35;;;;;;;;;;5154965;27;20058;-73
2023/08/06 12:22:22;;;;;;;8.52;3.83;;;;;;;;;;5154800;27;20030;-74
2023/08/06 12:24:48;;;;;;;7.68;5.05;;;;;;;;;;5154339;27;20045;-73
2023/08/06 12:27:16;;;;;;;7.93;4.47;;;;;;;;;;5155398;27;20101;-73
2023/08/06 12:29:43;;;;;;;8.75;4.85;;;;;;;;;;5155199;27;20038;-73
2023/08/06 12:32:09;;;;;;;7.75;5.13;;;;;;;;;;5154688;27;20019;-73
2023/08/06 12:34:42;;;;;;;11.52;5.63;;;;;;;;;;5153276;27;20058;-74
2023/08/06 12:37:08;;;;;;;9.35;5.57;;;;;;;;;;5153801;27;20054;-74
2023/08/06 12:39:35;;;;;;;9.02;6.07;;;;;;;;;;5152997;27;20117;-73
2023/08/06 12:42:04;;;;;;;9.32;5.80;;;;;;;;;;5154227;27;20350;-74
2023/08/06 12:44:30;;;;;;;10.27;4.20;;;;;;;;;;5154047;27;20068;-74
2023/08/06 12:46:56;;;;;;;8.18;5.03;;;;;;;;;;5153832;27;20026;-74
2023/08/06 12:49:22;;;;;;;11.00;6.60;;;;;;;;;;5153274;27;20029;-74
2023/08/06 12:51:52;;;;;;;8.35;5.25;;;;;;;;;;5153944;27;20027;-74
2023/08/06 12:54:18;;;;;;;10.70;5.83;;;;;;;;;;5154278;27;20062;-73
2023/08/06 12:56:45;;;;;;;9.63;5.70;;;;;;;;;;5153612;27;20073;-73
2023/08/06 12:59:11;;;;;;;10.23;6.05;;;;;;;;;;5154074;27;20023;-73
2023/08/06 13:01:43;;;;;;;12.82;5.43;;;;;;;;;;5153759;27;20422;-73
2023/08/06 13:04:09;;;;;;;9.90;5.85;;;;;;;;;;5153913;27;20027;-73
2023/08/06 13:06:39;;;;;;;10.27;5.07;;;;;;;;;;5153309;27;20105;-74
2023/08/06 13:09:06;;;;;;;8.43;4.82;;;;;;;;;;5153731;27;20054;-73
2023/08/06 13:11:33;;;;;;;8.48;4.70;;;;;;;;;;5154184;27;20365;-73
2023/08/06 13:14:25;;;;;;;7.53;3.95;;;;;;;;;;5152518;27;20022;-72
2023/08/06 13:16:51;;;;;;;6.60;3.78;;;;;;;;;;5150555;27;20046;-72
2023/08/06 13:19:17;;;;;;;8.18;4.57;;;;;;;;;;5153415;27;20076;-72
2023/08/06 13:21:52;;;;;;;8.52;4.88;;;;;;;;;;5153432;27;20031;-72
2023/08/06 13:24:18;;;;;;;7.50;4.53;;;;;;;;;;5153553;27;20054;-73
2023/08/06 13:26:44;;;;;;;7.32;4.18;;;;;;;;;;5152676;27;20038;-72
2023/08/06 13:29:10;;;;;;;9.82;5.70;;;;;;;;;;5153291;27;20026;-74
2023/08/06 13:31:37;;;;;;;11.57;5.70;;;;;;;;;;5151999;27;20031;-73
2023/08/06 13:34:03;;;;;;;11.60;5.20;;;;;;;;;;5153350;27;20022;-72
2023/08/06 13:36:29;;;;;;;10.70;5.82;;;;;;;;;;5151766;27;20050;-72
2023/08/06 13:38:55;;;;;;;8.32;4.95;;;;;;;;;;5152797;27;20026;-73
2023/08/06 13:41:22;;;;;;;8.32;5.15;;;;;;;;;;5153157;27;20029;-72
2023/08/06 13:43:48;;;;;;;8.02;4.78;;;;;;;;;;5152858;27;20034;-74
2023/08/06 13:46:18;;;;;;;9.18;5.28;;;;;;;;;;5153382;27;20023;-72
2023/08/06 13:48:44;;;;;;;11.18;5.50;;;;;;;;;;5152396;27;20023;-73
2023/08/06 13:51:11;;;;;;;7.55;4.95;;;;;;;;;;5153287;27;20094;-73
2023/08/06 13:53:37;;;;;;;6.93;3.55;;;;;;;;;;5151619;27;20414;-72
2023/08/06 13:56:03;;;;;;;8.18;4.93;;;;;;;;;;5151307;27;20034;-73
2023/08/06 13:58:29;;;;;;;8.10;5.05;;;;;;;;;;5153010;27;20094;-72
2023/08/06 14:00:56;;;;;;;8.05;4.10;;;;;;;;;;5152246;27;20519;-72
2023/08/06 14:03:22;;;;;;;8.85;5.18;;;;;;;;;;5152808;27;20018;-73
2023/08/06 14:05:48;;;;;;;9.85;5.55;;;;;;;;;;5152949;27;20038;-73
2023/08/06 14:08:14;;;;;;;8.05;5.20;;;;;;;;;;5151868;27;20035;-73
2023/08/06 14:10:40;;;;;;;8.20;5.47;;;;;;;;;;5152817;27;20510;-73
2023/08/06 14:13:06;;;;;;;9.05;5.97;;;;;;;;;;5152695;27;20022;-72
2023/08/06 14:15:33;;;;;;;10.98;5.78;;;;;;;;;;5153043;27;20123;-72
2023/08/06 14:17:59;;;;;;;11.38;7.35;;;;;;;;;;5151811;27;20033;-73
2023/08/06 14:20:25;;;;;;;7.75;5.50;;;;;;;;;;5152515;27;20107;-73
2023/08/06 14:22:51;;;;;;;8.75;6.38;;;;;;;;;;5152571;27;20046;-73
2023/08/06 14:25:17;;;;;;;9.60;6.57;;;;;;;;;;5152523;27;20030;-73
2023/08/06 14:27:43;;;;;;;9.07;4.68;;;;;;;;;;5152282;27;20391;-73
2023/08/06 14:30:09;;;;;;;10.55;7.78;;;;;;;;;;5151012;27;20015;-73